Cape Lisburne LRRS, AK

10:30 PM AKDT on July 27, 2014 (GMT -0800)
Red Dog Mine (PADG) Elev 968 ft | 68.03 °N, 162.90 °W | Change Station

Current weather conditions updated 13 hours ago

Fog
Fog
46 °F
Feels Like 46 °F
N
12
Wind Variable Wind from East
Gusts 15 mph

Tomorrow is forecast to be nearly the same temperature as today.

Today
High -- | Low -- °F
--% Chance of Precip.
Yesterday
High -- | Low -- °F
Precip. -- in
4:29 AM 1:45 AM
New Moon, 2% visible
Pressure 30.03 in
Visibility 15.0 miles
Clouds Overcast 5000 ft
Dew Point 41 °F
Humidity 79%
Rainfall 0.08 in
Snow Depth Not available.
UV 0 out of 12
Pollen Not available.
Air Quality Not available.
Flu Activity Not available.
SPECI PADG 271700Z 07007KT 15SM OVC050 08/01 A3003

More Conditions Fewer Conditions

Pressure 30.03 in
Visibility 15.0 miles
Clouds Overcast 5000 ft
Dew Point 41 °F
Humidity 79%
Rainfall 0.08 in
Snow Depth Not available.
UV 0 out of 12
Pollen Not available.
Air Quality Not available.
Flu Activity Not available.
SPECI PADG 271700Z 07007KT 15SM OVC050 08/01 A3003

More Conditions Fewer Conditions

10-Day Weather Forecast

Almanac

Astronomy

Jul. 27, 2014 Rise Set
Actual Time 4:29 AM AKDT 1:45 AM AKDT
Civil Twilight Sun does not rise Sun does not rise
Nautical Twilight Sun does not rise Sun does not rise
Astronomical Twilight Sun does not rise Sun does not rise
Moon 7:15 AM AKDT (7/27) 11:59 PM AKDT (7/27)
Length of Visible Light 24h 00m
Length of Day
21h 15m
Tomorrow will be 14m 49s shorter.
New Moon, 2% of the Moon is Illuminated
Jul 28
New Moon
Aug 3
First Quarter
Aug 10
Full
Aug 17
Last Quarter
Aug 25
New

Yesterday's Extremes

State Highs State Lows

Community

WunderPhotos

Upload Photos

1,738,289 photos uploaded!

Nearby

Snow Depth

Station Depth Elevation
Rocky Point 2 in 500 ft
Imnaviat Creek 0 in 3050 ft
Atigun Pass 0 in 4800 ft
Coldfoot 0 in 1040 ft
Gobblers Knob 0 in 2030 ft

Earthquake Activity

City Distance Mag. Time & Date
No recent earthquake activity has been reported nearby.
Minimum magnitude displayed is 2.5.

Coastal Water Temperatures

Place Temperature
No Stations Reporting

Nearby Weather Stations

There are no personal weather stations in this area.